Time;durP1;ratioP1;P1;durP2;ratioP2;P2;SDS_P1;SDS_P2;PMS_P1;PMS_P2;Temp;Humidity;BMP_temperature;BMP_pressure;BME280_temperature;BME280_humidity;BME280_pressure;Samples;Min_cycle;Max_cycle;Signal;HPM_P1;HPM_P2
2022/11/23 00:01:35;;;;;;;4.57;2.20;;;5.50;96.50;;;8.64;54.27;96266.59;5002387;28;20367;-57
2022/11/23 00:04:10;;;;;;;2.53;1.40;;;5.50;96.20;;;8.61;54.43;96269.66;5001658;28;20056;-58
2022/11/23 00:06:39;;;;;;;3.43;2.07;;;5.50;96.30;;;8.63;54.45;96267.63;5002687;28;20062;-57
2022/11/23 00:09:10;;;;;;;6.07;1.93;;;5.50;96.30;;;8.63;54.37;96264.97;5002022;28;20341;-57
2022/11/23 00:11:38;;;;;;;4.13;2.93;;;5.50;96.10;;;8.62;54.34;96266.78;5002193;28;20073;-56
2022/11/23 00:14:05;;;;;;;4.33;1.97;;;5.50;96.20;;;8.56;54.52;96264.88;5002003;28;20046;-57
2022/11/23 00:16:33;;;;;;;2.23;1.60;;;5.50;96.10;;;8.55;54.57;96257.94;5002362;28;20244;-56
2022/11/23 00:19:01;;;;;;;6.40;2.00;;;5.50;96.10;;;8.56;54.56;96253.44;5002558;28;20048;-57
2022/11/23 00:21:31;;;;;;;5.83;2.03;;;5.50;95.80;;;8.61;54.42;96256.38;5002182;28;20355;-58
2022/11/23 00:24:00;;;;;;;9.57;2.10;;;5.50;96.00;;;8.65;54.28;96255.00;5001616;28;20056;-56
2022/11/23 00:26:28;;;;;;;2.87;1.73;;;5.50;95.90;;;8.69;54.57;96255.47;5000910;28;20269;-57
2022/11/23 00:28:55;;;;;;;2.33;1.50;;;5.60;96.20;;;8.71;54.63;96256.91;5001893;28;20053;-57
2022/11/23 00:31:26;;;;;;;4.93;1.80;;;5.60;95.80;;;8.80;54.32;96258.47;5002236;28;20337;-57
2022/11/23 00:33:56;;;;;;;2.10;1.17;;;5.70;95.70;;;8.87;54.08;96248.75;5001529;28;20058;-57
2022/11/23 00:36:26;;;;;;;1.73;1.20;;;5.70;95.50;;;8.94;54.23;96251.50;5001338;28;20050;-58
2022/11/23 00:38:55;;;;;;;4.17;1.40;;;5.80;95.30;;;9.03;54.21;96253.06;5000561;28;20076;-57
2022/11/23 00:41:25;;;;;;;5.20;1.87;;;5.90;94.80;;;9.06;54.19;96251.84;5002178;28;20046;-56
2022/11/23 00:43:54;;;;;;;4.83;1.47;;;5.90;94.30;;;9.11;54.08;96249.47;5000901;28;20046;-56
2022/11/23 00:46:25;;;;;;;5.30;2.07;;;5.90;94.00;;;9.13;53.84;96252.78;5000876;28;20046;-56
2022/11/23 00:48:55;;;;;;;2.70;1.83;;;6.00;93.90;;;9.13;53.80;96251.94;5002247;28;20047;-56
2022/11/23 00:51:31;;;;;;;3.50;1.60;;;6.00;93.40;;;9.11;53.79;96249.47;5001028;28;20046;-56
2022/11/23 00:54:00;;;;;;;4.03;1.75;;;5.90;93.50;;;9.07;53.84;96250.84;5000969;28;20228;-57
2022/11/23 00:56:30;;;;;;;3.53;1.60;;;5.90;93.20;;;9.05;53.74;96252.84;5000921;28;20050;-56
2022/11/23 00:58:59;;;;;;;3.73;1.40;;;5.90;93.10;;;8.96;54.00;96252.16;5016660;28;20252;-57
2022/11/23 01:01:35;;;;;;;4.53;2.03;;;5.80;93.40;;;8.94;53.74;96250.69;4988355;28;20057;-56
2022/11/23 01:04:06;;;;;;;3.23;1.63;;;5.80;93.50;;;8.89;53.77;96245.91;5004233;28;20050;-54
2022/11/23 01:06:38;;;;;;;2.83;1.60;;;5.70;93.70;;;8.92;53.98;96240.25;4988454;28;20050;-55
2022/11/23 01:09:16;;;;;;;2.27;1.53;;;5.80;93.80;;;8.92;53.97;96250.88;5005705;28;20248;-57
2022/11/23 01:11:45;;;;;;;4.40;1.40;;;5.80;92.80;;;8.89;53.72;96245.09;5004544;28;20050;-56
2022/11/23 01:14:12;;;;;;;4.97;1.50;;;5.70;93.30;;;8.90;53.76;96246.75;5005265;28;20046;-56
2022/11/23 01:16:41;;;;;;;2.80;1.43;;;5.80;93.30;;;8.82;54.07;96253.81;5005729;28;20324;-56
2022/11/23 01:19:19;;;;;;;5.63;1.70;;;5.70;92.80;;;8.76;54.14;96251.91;5005651;28;20048;-55
2022/11/23 01:21:49;;;;;;;4.40;1.50;;;5.60;93.20;;;8.75;54.10;96260.84;5004222;28;20140;-56
2022/11/23 01:24:21;;;;;;;3.43;1.60;;;5.60;93.70;;;8.74;54.16;96253.88;5000525;28;20050;-56
2022/11/23 01:26:54;;;;;;;6.00;2.33;;;5.60;93.80;;;8.75;54.11;96257.38;5004357;28;20050;-57
2022/11/23 01:29:23;;;;;;;5.67;1.70;;;5.60;94.10;;;8.76;54.04;96259.00;5004521;28;20069;-57
2022/11/23 01:31:51;;;;;;;3.70;1.50;;;5.60;93.30;;;8.78;53.81;96251.69;4987931;28;20054;-57
2022/11/23 01:34:18;;;;;;;3.00;1.40;;;5.60;93.20;;;8.74;53.90;96247.75;5004884;28;20050;-56
2022/11/23 01:36:46;;;;;;;5.30;1.80;;;5.60;93.30;;;8.74;53.86;96253.88;5005002;28;20248;-56
2022/11/23 01:39:15;;;;;;;2.43;1.13;;;5.60;93.50;;;8.70;54.13;96251.78;5019695;28;20050;-57
2022/11/23 01:41:45;;;;;;;5.47;1.53;;;5.50;92.90;;;8.67;54.05;96251.16;5004656;28;20364;-54
2022/11/23 01:44:42;;;;;;;4.57;1.33;;;5.50;93.60;;;8.56;54.24;96258.75;5003730;28;20045;-57
2022/11/23 01:47:10;;;;;;;5.23;1.47;;;5.60;92.50;;;8.61;54.10;96257.19;5002483;28;20057;-56
2022/11/23 01:49:50;;;;;;;2.97;1.57;;;5.50;93.30;;;8.60;54.06;96260.84;5004792;28;20042;-57
2022/11/23 01:52:24;;;;;;;1.63;1.00;;;5.50;93.30;;;8.57;54.47;96261.22;5020215;28;20252;-55
2022/11/23 01:54:56;;;;;;;3.93;1.50;;;5.60;93.20;;;8.59;54.16;96269.81;5003520;28;20294;-56
2022/11/23 01:57:31;;;;;;;3.20;1.73;;;5.50;93.30;;;8.60;54.21;96270.63;4987865;28;20077;-55
2022/11/23 02:00:00;;;;;;;3.47;1.40;;;5.60;93.30;;;8.59;54.11;96269.81;5003824;28;20072;-56
2022/11/23 02:02:46;;;;;;;3.23;1.50;;;5.50;93.30;;;8.63;54.07;96272.94;5007687;28;20053;-55
2022/11/23 02:05:21;;;;;;;3.47;1.60;;;5.50;93.40;;;8.64;53.99;96277.22;5003230;28;20042;-56
2022/11/23 02:07:50;;;;;;;;;;;5.50;93.50;;;8.61;54.01;96267.81;5004048;28;20098;-56
2022/11/23 02:10:20;;;;;;;2.50;1.40;;;5.40;93.10;;;8.60;54.08;96279.41;5002748;28;19940;-57
2022/11/23 02:12:47;;;;;;;2.63;1.13;;;5.40;93.50;;;8.55;54.11;96279.16;4987282;28;20050;-56
2022/11/23 02:15:16;;;;;;;2.07;1.30;;;5.30;93.80;;;8.56;53.93;96279.97;5004109;28;20337;-55
2022/11/23 02:17:44;;;;;;;4.13;1.03;;;5.40;93.90;;;8.55;53.86;96273.84;4986749;28;20056;-57
2022/11/23 02:20:17;;;;;;;4.17;1.50;;;5.30;94.00;;;8.47;54.43;96277.41;4987628;28;20252;-56
2022/11/23 02:23:03;;;;;;;3.17;1.37;;;5.30;94.40;;;8.50;54.17;96276.22;5004106;28;20072;-56
2022/11/23 02:25:45;;;;;;;2.37;1.73;;;5.30;94.10;;;8.52;54.22;96284.00;5019335;28;20050;-57
2022/11/23 02:28:25;;;;;;;3.37;1.13;;;5.40;94.20;;;8.51;54.31;96283.19;5004161;28;20042;-55
2022/11/23 02:30:54;;;;;;;4.50;1.83;;;5.40;93.60;;;8.52;54.12;96287.47;5002996;28;20042;-56
2022/11/23 02:33:24;;;;;;;5.03;1.53;;;5.40;93.80;;;8.53;54.20;96288.28;5002994;28;20058;-57
2022/11/23 02:35:57;;;;;;;3.03;1.30;;;5.40;93.60;;;8.54;54.10;96288.09;5019196;28;20228;-58
2022/11/23 02:38:30;;;;;;;3.15;2.05;;;5.40;93.70;;;8.53;54.33;96281.16;5003899;28;20056;-57
2022/11/23 02:40:59;;;;;;;;;;;5.40;93.70;;;8.57;54.04;96286.91;5003106;28;20054;-56
2022/11/23 02:43:27;;;;;;;4.00;1.40;;;5.40;93.40;;;8.59;53.70;96288.38;5018964;28;20204;-57
2022/11/23 02:45:58;;;;;;;1.87;1.33;;;5.30;93.90;;;8.54;54.05;96289.94;5002571;28;20047;-57
2022/11/23 02:48:26;;;;;;;4.47;1.40;;;5.30;93.70;;;8.51;54.09;96291.13;4986987;28;20050;-56
2022/11/23 02:50:54;;;;;;;3.33;1.53;;;5.30;94.20;;;8.48;54.07;96284.34;5002855;28;20053;-57
2022/11/23 02:53:23;;;;;;;3.50;1.40;;;5.30;94.00;;;8.46;54.38;96288.19;5003395;28;20046;-58
2022/11/23 02:55:54;;;;;;;4.33;1.57;;;5.20;94.60;;;8.40;54.24;96289.69;5003115;28;20042;-57
2022/11/23 02:58:23;;;;;;;3.80;1.40;;;5.20;94.30;;;8.34;54.34;96282.47;5003724;28;20046;-57
2022/11/23 03:00:51;;;;;;;3.03;1.43;;;5.10;95.20;;;8.31;54.23;96284.66;5018875;28;20061;-56
2022/11/23 03:03:19;;;;;;;2.00;1.30;;;5.00;95.20;;;8.21;54.85;96283.06;5003581;28;20052;-56
2022/11/23 03:05:47;;;;;;;3.40;1.70;;;5.00;96.00;;;8.21;54.73;96285.72;5018093;28;20058;-56
2022/11/23 03:08:15;;;;;;;2.20;1.37;;;4.90;96.30;;;8.20;54.49;96283.25;5002647;28;20050;-57
2022/11/23 03:10:43;;;;;;;3.83;1.03;;;4.90;96.70;;;8.21;54.50;96279.59;5002001;28;20046;-55
2022/11/23 03:13:11;;;;;;;4.17;1.70;;;4.90;97.00;;;8.22;54.98;96279.44;5018895;28;20050;-57
2022/11/23 03:15:40;;;;;;;2.60;1.50;;;4.90;97.20;;;8.27;54.61;96277.03;5018230;28;20049;-56
2022/11/23 03:18:09;;;;;;;5.47;1.50;;;5.00;97.40;;;8.30;54.67;96281.19;5002043;28;20050;-58
2022/11/23 03:20:38;;;;;;;4.90;1.60;;;5.10;97.00;;;8.33;54.58;96286.13;5018286;28;20069;-58
2022/11/23 03:23:05;;;;;;;3.07;1.47;;;5.10;96.60;;;8.36;54.47;96282.31;5002495;28;20048;-57
2022/11/23 03:25:33;;;;;;;2.07;1.37;;;5.10;96.30;;;8.34;54.71;96276.34;5001316;28;20042;-57
2022/11/23 03:28:03;;;;;;;2.10;1.03;;;5.10;96.40;;;8.29;54.37;96280.34;5001706;28;20069;-56
2022/11/23 03:30:33;;;;;;;2.00;1.20;;;5.10;96.80;;;8.28;54.54;96281.38;4986165;28;20053;-55
2022/11/23 03:33:03;;;;;;;6.10;1.80;;;5.00;96.30;;;8.25;54.61;96294.16;5002124;28;20058;-56
2022/11/23 03:35:31;;;;;;;3.67;1.60;;;5.00;96.90;;;8.22;54.59;96291.84;5001803;28;20344;-57
2022/11/23 03:38:22;;;;;;;2.13;1.60;;;4.90;97.20;;;8.16;54.91;96297.88;5002767;28;20058;-56
2022/11/23 03:40:51;;;;;;;4.07;1.60;;;4.90;97.40;;;8.23;54.91;96289.03;4984919;28;20050;-56
2022/11/23 03:43:32;;;;;;;4.23;1.50;;;5.00;97.80;;;8.26;55.07;96285.22;5018009;28;20050;-56
2022/11/23 03:46:00;;;;;;;4.53;1.20;;;5.00;97.20;;;8.27;54.94;96292.13;5001823;28;20367;-56
2022/11/23 03:48:27;;;;;;;5.93;1.30;;;5.00;97.00;;;8.31;54.90;96282.81;5001737;28;20044;-55
2022/11/23 03:50:55;;;;;;;4.27;1.80;;;5.10;97.30;;;8.38;54.92;96281.09;5002653;28;20046;-53
2022/11/23 03:53:24;;;;;;;5.67;1.80;;;5.20;97.30;;;8.43;54.75;96277.94;4985544;28;20049;-56
2022/11/23 03:55:54;;;;;;;5.97;1.90;;;5.30;96.30;;;8.45;54.68;96279.41;5001041;28;20081;-54
2022/11/23 03:58:24;;;;;;;3.17;1.90;;;5.30;96.70;;;8.46;54.71;96272.28;5018003;28;20260;-56
2022/11/23 04:00:51;;;;;;;4.80;1.40;;;5.30;95.80;;;8.48;54.53;96273.72;5001513;28;20050;-56
2022/11/23 04:03:19;;;;;;;3.57;1.47;;;5.20;95.80;;;8.51;54.74;96271.72;5016855;28;20076;-53
2022/11/23 04:06:06;;;;;;;3.10;1.57;;;5.30;96.50;;;8.52;54.72;96262.78;5001957;28;20056;-54
2022/11/23 04:08:53;;;;;;;4.60;1.53;;;5.40;95.40;;;8.52;54.71;96268.06;5017959;28;20054;-56
2022/11/23 04:11:43;;;;;;;2.93;1.90;;;5.30;95.70;;;8.55;54.33;96267.69;5004759;28;20054;-56
2022/11/23 04:14:11;;;;;;;3.20;2.23;;;5.30;96.00;;;8.53;54.53;96264.41;5000910;28;20050;-55
2022/11/23 04:16:39;;;;;;;3.87;2.30;;;5.30;95.40;;;8.52;54.39;96265.44;5018091;28;20050;-57
2022/11/23 04:19:07;;;;;;;3.13;1.30;;;5.30;95.20;;;8.50;54.30;96264.78;5016616;28;20050;-56
2022/11/23 04:21:36;;;;;;;2.87;1.57;;;5.30;95.40;;;8.46;54.50;96262.47;5001210;28;20060;-56
2022/11/23 04:24:04;;;;;;;4.70;2.50;;;5.20;95.50;;;8.45;54.41;96267.97;4999329;28;20046;-55
2022/11/23 04:26:35;;;;;;;2.80;1.60;;;5.20;95.60;;;8.39;54.44;96266.00;5000291;28;20050;-56
2022/11/23 04:29:03;;;;;;;7.43;1.77;;;5.10;95.60;;;8.35;54.48;96262.06;5016539;28;20061;-54
2022/11/23 04:31:33;;;;;;;4.73;1.40;;;5.10;95.60;;;8.31;54.78;96260.78;5017914;28;20060;-55
2022/11/23 04:34:10;;;;;;;6.17;1.73;;;5.10;95.80;;;8.34;54.49;96261.25;5018758;28;20066;-55
2022/11/23 04:36:39;;;;;;;3.67;1.57;;;5.10;95.80;;;8.35;54.60;96257.59;5021885;28;20056;-55
2022/11/23 04:39:11;;;;;;;4.47;1.77;;;5.20;95.90;;;8.33;54.62;96254.28;5003573;28;20066;-56
2022/11/23 04:42:05;;;;;;;7.50;1.53;;;5.20;95.10;;;8.36;54.79;96263.72;5001021;28;20050;-55
2022/11/23 04:44:34;;;;;;;5.50;2.27;;;5.20;95.30;;;8.37;54.74;96254.75;5004217;28;20060;-55
2022/11/23 04:47:04;;;;;;;2.00;1.20;;;5.20;95.60;;;8.42;54.67;96258.56;5005318;28;20357;-56
2022/11/23 04:49:36;;;;;;;3.57;1.53;;;5.20;95.20;;;8.46;54.60;96257.19;5004745;28;20050;-54
2022/11/23 04:52:04;;;;;;;7.83;2.43;;;5.30;95.30;;;8.43;54.78;96260.22;5020719;28;20057;-55
2022/11/23 04:54:37;;;;;;;10.82;3.35;;;5.30;94.50;;;8.53;54.48;96259.94;4988600;28;20056;-52
2022/11/23 04:57:08;;;;;;;8.30;2.57;;;5.30;95.60;;;8.55;54.49;96249.97;4989140;28;20058;-55
2022/11/23 04:59:38;;;;;;;8.30;2.10;;;5.30;95.20;;;8.62;54.69;96260.66;5004792;28;20352;-56
2022/11/23 05:02:06;;;;;;;4.07;1.43;;;5.40;94.80;;;8.62;54.53;96263.31;4989035;28;20064;-55
2022/11/23 05:04:47;;;;;;;3.50;1.40;;;5.40;94.80;;;8.64;54.70;96262.13;4989720;28;20060;-54
2022/11/23 05:07:17;;;;;;;2.93;2.00;;;5.40;95.20;;;8.62;54.59;96258.81;5005400;28;20054;-56
2022/11/23 05:09:51;;;;;;;3.43;2.43;;;5.40;94.20;;;8.71;54.34;96270.19;5020434;28;20136;-55
2022/11/23 05:12:21;;;;;;;5.03;1.40;;;5.50;94.80;;;8.77;54.22;96260.69;5020829;28;20054;-56
2022/11/23 05:14:50;;;;;;;2.50;1.40;;;5.50;94.20;;;8.74;54.14;96261.84;5020440;28;20057;-56
2022/11/23 05:17:29;;;;;;;4.10;1.40;;;5.50;94.50;;;8.77;54.08;96260.69;5020990;28;20064;-56
2022/11/23 05:19:57;;;;;;;4.63;1.73;;;5.60;94.40;;;8.78;54.23;96263.16;4988729;28;20386;-57
2022/11/23 05:22:26;;;;;;;4.73;1.30;;;5.60;94.10;;;8.81;54.31;96256.66;5020950;28;20293;-55
2022/11/23 05:24:54;;;;;;;8.70;1.97;;;5.60;93.60;;;8.87;54.10;96258.56;5003907;28;20050;-57
2022/11/23 05:27:24;;;;;;;6.47;1.30;;;5.70;93.60;;;8.88;54.23;96254.91;5004357;28;20046;-54
2022/11/23 05:29:52;;;;;;;4.13;1.57;;;5.60;93.90;;;8.94;53.90;96261.31;5019852;28;20047;-57
2022/11/23 05:32:20;;;;;;;7.33;2.13;;;5.70;94.00;;;8.94;54.08;96256.81;5003595;28;20342;-56
2022/11/23 05:34:48;;;;;;;5.33;3.00;;;5.70;93.70;;;9.00;54.19;96249.94;5003498;28;20353;-56
2022/11/23 05:37:18;;;;;;;3.27;1.53;;;5.80;93.60;;;9.07;53.98;96256.16;4988006;28;20060;-57
2022/11/23 05:39:52;;;;;;;5.83;1.47;;;5.90;92.80;;;9.04;54.32;96256.53;5002985;28;20056;-57
2022/11/23 05:42:23;;;;;;;3.97;1.50;;;5.90;92.70;;;9.09;53.82;96246.16;5004952;28;20060;-56
2022/11/23 05:44:54;;;;;;;2.97;1.70;;;5.90;92.80;;;9.10;53.90;96244.34;5003130;28;20054;-57
2022/11/23 05:47:28;;;;;;;3.37;1.70;;;5.90;92.50;;;9.13;53.77;96251.94;5019797;28;20054;-56
2022/11/23 05:49:56;;;;;;;4.30;1.80;;;6.00;91.80;;;9.16;53.67;96251.56;5003958;28;20060;-57
2022/11/23 05:52:28;;;;;;;4.23;1.43;;;5.90;92.10;;;9.12;53.81;96247.63;5020285;28;20382;-56
2022/11/23 05:54:57;;;;;;;4.27;1.80;;;6.00;91.60;;;9.18;53.79;96252.19;4987426;28;20058;-57
2022/11/23 05:57:25;;;;;;;2.90;1.40;;;6.00;91.30;;;9.22;53.61;96256.94;5005238;28;20046;-56
2022/11/23 05:59:53;;;;;;;6.80;1.90;;;6.00;91.60;;;9.25;53.66;96251.28;5020065;28;20271;-58
2022/11/23 06:02:25;;;;;;;4.77;1.90;;;6.10;91.40;;;9.27;53.28;96245.78;5019710;28;20394;-55
2022/11/23 06:04:59;;;;;;;;;;;6.10;90.80;;;9.30;53.56;96237.41;4987920;28;20046;-57
2022/11/23 06:07:38;;;;;;;3.27;1.60;;;6.20;89.90;;;9.36;53.30;96235.84;5019640;28;19917;-56
2022/11/23 06:10:11;;;;;;;4.63;1.63;;;6.20;90.20;;;9.38;53.23;96239.13;4987543;28;20072;-56
2022/11/23 06:12:44;;;;;;;2.80;1.53;;;6.20;89.70;;;9.38;53.20;96245.28;4987802;28;20061;-57
2022/11/23 06:15:17;;;;;;;3.43;1.60;;;6.20;89.30;;;9.37;53.07;96248.13;5003031;28;20045;-57
2022/11/23 06:17:46;;;;;;;4.97;1.60;;;6.20;89.00;;;9.35;53.10;96252.81;4987614;28;20055;-57
2022/11/23 06:20:19;;;;;;;1.70;1.33;;;6.20;89.10;;;9.38;53.08;96249.75;4987823;28;20046;-57
2022/11/23 06:22:55;;;;;;;5.53;1.90;;;6.30;88.70;;;9.33;53.03;96257.50;5004450;28;20055;-58
2022/11/23 06:25:25;;;;;;;6.80;1.97;;;6.20;88.70;;;9.28;52.99;96263.34;4986851;28;20047;-60
2022/11/23 06:28:00;;;;;;;3.57;1.80;;;6.20;88.50;;;9.33;53.03;96260.13;5004247;28;20366;-59
2022/11/23 06:30:35;;;;;;;5.87;1.60;;;6.20;88.70;;;9.40;52.74;96253.06;5002966;28;20050;-56
2022/11/23 06:33:06;;;;;;;7.93;1.67;;;6.20;88.40;;;9.37;53.02;96254.25;5018713;28;20058;-58
2022/11/23 06:35:58;;;;;;;4.80;1.43;;;6.30;88.60;;;9.39;52.83;96246.09;4987723;28;20056;-59
2022/11/23 06:38:31;;;;;;;3.93;1.30;;;6.30;87.60;;;9.35;52.88;96253.63;5002577;28;20060;-61
2022/11/23 06:41:07;;;;;;;5.50;1.43;;;6.20;88.30;;;9.39;53.05;96251.41;5003157;28;20050;-61
2022/11/23 06:43:35;;;;;;;5.70;1.63;;;6.30;88.40;;;9.41;52.82;96257.38;5002395;28;20052;-61
2022/11/23 06:46:05;;;;;;;3.73;1.40;;;6.30;88.10;;;9.36;52.79;96257.09;4986653;28;20050;-58
2022/11/23 06:48:38;;;;;;;5.20;1.57;;;6.30;87.80;;;9.47;52.82;96253.94;4987497;28;20050;-58
2022/11/23 06:51:07;;;;;;;3.03;1.00;;;6.40;88.00;;;9.48;52.85;96258.28;4986725;28;20054;-58
2022/11/23 06:53:37;;;;;;;5.27;1.50;;;6.40;87.50;;;9.56;52.64;96262.66;5002343;28;20260;-60
2022/11/23 06:56:07;;;;;;;3.17;2.00;;;6.40;87.70;;;9.58;52.55;96252.66;5002573;28;20081;-60
2022/11/23 06:58:36;;;;;;;4.50;1.57;;;6.50;87.30;;;9.59;52.72;96255.09;4985961;28;20291;-59
2022/11/23 07:01:09;;;;;;;4.95;1.40;;;6.40;87.20;;;9.60;52.48;96256.75;4987104;28;20089;-58
2022/11/23 07:03:46;;;;;;;5.60;2.83;;;6.50;86.40;;;9.60;52.37;96259.41;5018161;28;20057;-59
2022/11/23 07:06:22;;;;;;;7.20;2.20;;;6.50;86.70;;;9.62;52.27;96265.34;5002147;28;20337;-59
2022/11/23 07:08:54;;;;;;;4.00;1.67;;;6.50;86.70;;;9.67;52.17;96264.78;5017957;28;20056;-59
2022/11/23 07:11:48;;;;;;;2.43;1.50;;;6.50;86.20;;;9.71;52.35;96265.22;5002797;28;20058;-58
2022/11/23 07:14:17;;;;;;;6.63;1.97;;;6.50;86.00;;;9.70;52.21;96271.56;5001348;28;20054;-59
2022/11/23 07:16:47;;;;;;;2.53;1.80;;;6.50;86.20;;;9.68;52.21;96271.75;5002193;28;20349;-59
2022/11/23 07:19:15;;;;;;;4.70;1.90;;;6.60;85.60;;;9.69;52.21;96270.72;5002064;28;20352;-59
2022/11/23 07:21:44;;;;;;;5.63;2.13;;;6.60;85.50;;;9.74;51.93;96271.00;5018342;28;20293;-59
2022/11/23 07:24:12;;;;;;;3.87;1.60;;;6.60;85.00;;;9.75;51.85;96277.13;5001511;28;20217;-57
2022/11/23 07:26:41;;;;;;;3.90;1.53;;;6.60;85.70;;;9.78;52.08;96277.56;5014424;28;20046;-57
2022/11/23 07:29:09;;;;;;;8.43;1.60;;;6.60;85.40;;;9.83;52.04;96277.84;5001925;28;20056;-56
2022/11/23 07:31:37;;;;;;;3.70;2.03;;;6.60;85.70;;;9.87;51.69;96275.63;4986089;28;20174;-58
2022/11/23 07:34:07;;;;;;;3.47;1.37;;;6.70;85.80;;;9.88;51.65;96279.09;5001415;28;20241;-59
2022/11/23 07:36:36;;;;;;;4.47;1.70;;;6.60;85.20;;;9.91;51.73;96282.19;5001716;28;20056;-58
2022/11/23 07:39:04;;;;;;;3.90;1.63;;;6.70;85.40;;;9.90;51.58;96277.88;5001463;28;20336;-59
2022/11/23 07:41:32;;;;;;;4.90;1.90;;;6.70;85.30;;;9.95;51.75;96287.97;5001770;28;20073;-59
2022/11/23 07:44:20;;;;;;;4.87;1.37;;;6.80;85.30;;;9.97;51.76;96289.41;5003842;28;20349;-60
2022/11/23 07:46:54;;;;;;;6.80;1.60;;;6.80;84.80;;;10.03;51.69;96293.16;5018039;28;20050;-61
2022/11/23 07:49:22;;;;;;;5.20;1.60;;;6.80;84.80;;;10.05;51.51;96281.28;5001208;28;20052;-61
2022/11/23 07:51:50;;;;;;;4.63;1.50;;;6.90;84.80;;;10.12;51.35;96288.50;5002596;28;20126;-61
2022/11/23 07:54:18;;;;;;;6.07;1.40;;;6.90;84.60;;;10.16;51.46;96301.25;5001984;28;20072;-59
2022/11/23 07:56:50;;;;;;;4.03;1.30;;;7.00;84.30;;;10.14;51.03;96287.31;5002811;28;20046;-58
2022/11/23 07:59:18;;;;;;;8.00;1.90;;;7.00;83.50;;;10.16;51.42;96295.13;5002751;28;20263;-59
2022/11/23 08:01:45;;;;;;;4.33;2.10;;;7.00;83.50;;;10.18;51.38;96296.56;5017646;28;20250;-59
2022/11/23 08:04:19;;;;;;;5.70;1.88;;;7.10;83.40;;;10.21;51.06;96282.84;5001883;28;20368;-60
2022/11/23 08:06:47;;;;;;;4.53;1.77;;;7.10;83.70;;;10.23;51.24;96295.97;5002633;28;20053;-60
2022/11/23 08:09:15;;;;;;;4.00;1.60;;;7.10;83.50;;;10.24;51.21;96301.09;5001938;28;20058;-60
2022/11/23 08:11:43;;;;;;;5.77;1.90;;;7.10;83.60;;;10.22;51.05;96299.66;5001521;28;20042;-60
2022/11/23 08:14:11;;;;;;;3.47;1.53;;;7.10;82.90;;;10.23;51.05;96293.31;5001990;28;20202;-60
2022/11/23 08:16:39;;;;;;;4.57;1.57;;;7.10;83.00;;;10.30;51.03;96293.38;5002354;28;20050;-60
2022/11/23 08:19:07;;;;;;;6.90;2.10;;;7.20;83.20;;;10.31;51.07;96287.06;5010541;28;20300;-58
2022/11/23 08:21:35;;;;;;;5.00;1.70;;;7.20;82.60;;;10.36;50.63;96287.31;4996099;28;20260;-59
2022/11/23 08:24:02;;;;;;;6.27;1.70;;;7.20;82.40;;;10.37;50.79;96292.44;4996333;28;20328;-59
2022/11/23 08:26:33;;;;;;;4.50;1.77;;;7.20;82.80;;;10.35;50.71;96288.31;4998871;28;20046;-59
2022/11/23 08:29:03;;;;;;;6.43;1.90;;;7.20;82.30;;;10.38;50.93;96295.94;4996600;28;20273;-59
2022/11/23 08:31:34;;;;;;;6.43;1.70;;;7.20;82.20;;;10.43;50.86;96293.53;4998565;28;20058;-58
2022/11/23 08:34:02;;;;;;;10.77;2.53;;;7.30;82.30;;;10.46;50.52;96294.97;4995407;28;20038;-59
2022/11/23 08:36:30;;;;;;;2.57;1.37;;;7.30;82.80;;;10.48;50.78;96295.59;4998979;28;20245;-60
2022/11/23 08:38:58;;;;;;;7.23;1.90;;;7.40;82.80;;;10.53;50.75;96295.84;4995967;28;20221;-59
2022/11/23 08:41:27;;;;;;;5.97;1.80;;;7.50;82.10;;;10.56;50.72;96298.09;4997871;28;20049;-59
2022/11/23 08:43:55;;;;;;;4.73;1.60;;;7.50;82.40;;;10.59;51.31;96298.53;4995962;28;20053;-60
2022/11/23 08:46:23;;;;;;;3.90;1.60;;;7.60;82.60;;;10.69;51.02;96294.72;4996836;28;20046;-59
2022/11/23 08:48:51;;;;;;;5.00;1.83;;;7.60;82.70;;;10.76;50.84;96296.41;4998206;28;20046;-59
2022/11/23 08:51:21;;;;;;;5.63;1.67;;;7.70;82.40;;;10.78;50.45;96291.72;4998870;28;20052;-59
2022/11/23 08:53:50;;;;;;;3.40;1.83;;;7.70;81.40;;;10.75;50.10;96291.28;4995630;28;20253;-59
2022/11/23 08:56:18;;;;;;;5.90;1.70;;;7.70;81.10;;;10.69;50.72;96292.06;4995667;28;20055;-59
2022/11/23 08:58:46;;;;;;;5.60;2.17;;;7.70;81.70;;;10.70;50.83;96294.53;4996757;28;20057;-60
2022/11/23 09:01:16;;;;;;;5.93;1.80;;;7.60;81.50;;;10.69;50.79;96294.72;4997148;28;20068;-59
2022/11/23 09:03:44;;;;;;;4.00;1.40;;;7.60;81.50;;;10.70;50.30;96301.66;4997158;28;20248;-59
2022/11/23 09:06:12;;;;;;;4.07;1.40;;;7.60;81.40;;;10.59;50.65;96303.03;4997371;28;20047;-59
2022/11/23 09:08:40;;;;;;;5.43;1.93;;;7.50;81.30;;;10.58;50.60;96304.03;4997604;28;20054;-59
2022/11/23 09:11:13;;;;;;;4.00;1.40;;;7.50;81.50;;;10.55;50.44;96301.78;4997202;28;20248;-59
2022/11/23 09:13:41;;;;;;;8.77;2.13;;;7.40;80.80;;;10.55;50.56;96304.44;4995430;28;20076;-59
2022/11/23 09:16:09;;;;;;;4.33;1.97;;;7.40;81.20;;;10.50;50.03;96297.03;4996858;28;20109;-59
2022/11/23 09:18:37;;;;;;;2.63;1.80;;;7.40;80.80;;;10.48;50.24;96300.91;4996766;28;20356;-59
2022/11/23 09:21:05;;;;;;;5.23;2.17;;;7.40;79.70;;;10.47;50.15;96299.25;4996350;28;20046;-57
2022/11/23 09:23:33;;;;;;;4.97;1.30;;;7.40;80.70;;;10.48;50.75;96299.06;4993738;28;20349;-59
2022/11/23 09:26:03;;;;;;;4.63;1.70;;;7.40;81.10;;;10.50;50.16;96301.53;5004908;28;20049;-57
2022/11/23 09:28:32;;;;;;;4.20;1.50;;;7.40;81.30;;;10.52;50.38;96302.16;5005130;28;20250;-58
2022/11/23 09:31:03;;;;;;;5.07;1.50;;;7.50;80.60;;;10.51;49.84;96303.19;5004938;28;20054;-59
2022/11/23 09:33:31;;;;;;;4.73;1.93;;;7.40;79.60;;;10.52;50.19;96302.16;5004053;28;20050;-59
2022/11/23 09:36:02;;;;;;;5.43;1.80;;;7.50;80.00;;;10.56;50.04;96296.25;5005328;28;20062;-59
2022/11/23 09:38:30;;;;;;;7.23;2.23;;;7.50;80.40;;;10.62;49.73;96302.63;5005821;28;20080;-59
2022/11/23 09:41:59;;;;;;;6.40;1.67;;;7.50;80.20;;;10.63;50.35;96310.44;5004164;28;20353;-59
2022/11/23 09:45:00;;;;;;;2.63;1.57;;;7.60;79.70;;;10.66;50.10;96306.56;5004572;28;20054;-58
2022/11/23 09:48:04;;;;;;;1.50;1.17;;;7.60;80.10;;;10.68;50.29;96309.84;4979982;28;20065;-60
2022/11/23 09:51:03;;;;;;;2.20;1.40;;;7.60;79.90;;;10.71;49.86;96311.31;5004980;28;20358;-60
2022/11/23 09:54:03;;;;;;;4.03;2.00;;;7.60;79.20;;;10.62;49.99;96307.97;5004826;28;20054;-60
2022/11/23 09:56:36;;;;;;;4.73;1.90;;;7.70;79.20;;;10.65;50.20;96302.25;5004671;28;20056;-58
2022/11/23 09:59:33;;;;;;;4.97;1.50;;;7.70;79.40;;;10.68;50.47;96295.72;5004950;28;20240;-60
2022/11/23 10:02:01;;;;;;;5.90;2.00;;;7.80;78.30;;;10.73;50.14;96302.09;5004519;28;20055;-60
2022/11/23 10:04:34;;;;;;;3.47;1.47;;;7.80;78.60;;;10.74;49.99;96295.78;5003299;28;20056;-60
2022/11/23 10:07:24;;;;;;;4.13;1.37;;;7.80;78.00;;;10.73;49.69;96301.28;5004559;28;20051;-60
2022/11/23 10:10:23;;;;;;;5.17;1.60;;;7.90;76.80;;;10.73;49.65;96290.66;5004417;28;20053;-59
2022/11/23 10:12:58;;;;;;;5.13;1.60;;;7.90;76.30;;;10.75;49.15;96297.41;5019085;28;20236;-60
2022/11/23 10:15:36;;;;;;;3.07;1.70;;;7.90;76.60;;;10.75;49.51;96300.06;5004284;28;20057;-60
2022/11/23 10:18:57;;;;;;;5.80;2.27;;;7.90;75.80;;;10.77;49.68;96295.38;5003023;28;20052;-60
2022/11/23 10:22:26;;;;;;;8.03;2.00;;;7.90;75.40;;;10.81;49.50;96293.97;4990420;28;20058;-59
2022/11/23 10:24:54;;;;;;;4.33;1.63;;;7.90;76.30;;;10.85;48.74;96291.72;4956203;29;20059;-59
2022/11/23 10:27:24;;;;;;;4.60;1.60;;;7.90;76.30;;;10.82;48.81;96286.81;4943423;29;20058;-60
2022/11/23 10:29:55;;;;;;;5.57;1.93;;;7.90;75.80;;;10.79;48.97;96289.84;4989339;28;20281;-59
2022/11/23 10:32:33;;;;;;;5.37;1.63;;;7.90;75.90;;;10.83;49.17;96283.94;5019181;28;20252;-59
2022/11/23 10:35:34;;;;;;;3.60;1.77;;;8.00;75.00;;;10.80;49.17;96295.00;5002334;28;20049;-59
2022/11/23 10:38:19;;;;;;;4.17;1.70;;;8.00;74.20;;;10.82;49.19;96289.47;5002856;28;20061;-60
2022/11/23 10:41:11;;;;;;;6.13;2.03;;;8.00;75.30;;;10.86;49.08;96287.22;4986472;28;20253;-59
2022/11/23 10:44:01;;;;;;;4.13;2.03;;;8.00;75.60;;;10.92;48.83;96289.94;5003689;28;20236;-59
2022/11/23 10:46:36;;;;;;;6.60;1.53;;;8.00;75.70;;;10.99;48.47;96280.16;5002610;28;20057;-60
2022/11/23 10:49:25;;;;;;;5.27;1.57;;;8.10;74.50;;;10.90;48.90;96280.50;5003917;28;20052;-59
2022/11/23 10:52:04;;;;;;;3.97;1.67;;;8.10;74.50;;;10.98;48.99;96281.16;5002544;28;20148;-59
2022/11/23 10:54:44;;;;;;;4.93;1.60;;;8.20;74.60;;;11.07;48.66;96276.50;5003473;28;20056;-56
2022/11/23 10:57:33;;;;;;;2.63;1.70;;;8.20;74.40;;;11.16;48.34;96267.31;5003540;28;20050;-57